sensor_id;sensor_type;location;lat;lon;timestamp;P1;durP1;ratioP1;P2;durP2;ratioP2
76574;SDS011;65439;50.948;6.988;2023-06-14T00:01:13;10.47;;;5.67;;
76574;SDS011;65439;50.948;6.988;2023-06-14T00:03:39;8.40;;;6.43;;
76574;SDS011;65439;50.948;6.988;2023-06-14T00:06:04;9.70;;;6.37;;
76574;SDS011;65439;50.948;6.988;2023-06-14T00:08:29;6.27;;;5.67;;
76574;SDS011;65439;50.948;6.988;2023-06-14T00:10:55;7.03;;;6.33;;
76574;SDS011;65439;50.948;6.988;2023-06-14T00:13:20;6.93;;;5.87;;
76574;SDS011;65439;50.948;6.988;2023-06-14T00:15:45;11.15;;;6.57;;
76574;SDS011;65439;50.948;6.988;2023-06-14T00:18:12;6.72;;;5.95;;
76574;SDS011;65439;50.948;6.988;2023-06-14T00:20:38;10.30;;;6.55;;
76574;SDS011;65439;50.948;6.988;2023-06-14T00:25:29;8.30;;;6.30;;
76574;SDS011;65439;50.948;6.988;2023-06-14T00:27:55;7.18;;;5.53;;
76574;SDS011;65439;50.948;6.988;2023-06-14T00:32:47;7.93;;;5.67;;
76574;SDS011;65439;50.948;6.988;2023-06-14T00:35:12;12.30;;;6.57;;
76574;SDS011;65439;50.948;6.988;2023-06-14T00:37:38;7.03;;;5.93;;
76574;SDS011;65439;50.948;6.988;2023-06-14T00:40:04;7.80;;;6.03;;
76574;SDS011;65439;50.948;6.988;2023-06-14T00:42:31;8.68;;;6.30;;
76574;SDS011;65439;50.948;6.988;2023-06-14T00:44:57;8.97;;;6.60;;
76574;SDS011;65439;50.948;6.988;2023-06-14T00:47:22;8.65;;;5.90;;
76574;SDS011;65439;50.948;6.988;2023-06-14T00:49:48;9.07;;;6.45;;
76574;SDS011;65439;50.948;6.988;2023-06-14T00:52:15;7.95;;;7.15;;
76574;SDS011;65439;50.948;6.988;2023-06-14T00:54:41;12.13;;;7.10;;
76574;SDS011;65439;50.948;6.988;2023-06-14T00:57:07;7.63;;;5.78;;
76574;SDS011;65439;50.948;6.988;2023-06-14T00:59:33;8.57;;;6.95;;
76574;SDS011;65439;50.948;6.988;2023-06-14T01:02:00;8.45;;;6.57;;
76574;SDS011;65439;50.948;6.988;2023-06-14T01:04:25;7.10;;;6.40;;
76574;SDS011;65439;50.948;6.988;2023-06-14T01:06:55;6.93;;;6.23;;
76574;SDS011;65439;50.948;6.988;2023-06-14T01:12:11;6.75;;;5.88;;
76574;SDS011;65439;50.948;6.988;2023-06-14T01:14:40;10.80;;;6.32;;
76574;SDS011;65439;50.948;6.988;2023-06-14T01:17:06;8.05;;;5.78;;
76574;SDS011;65439;50.948;6.988;2023-06-14T01:19:40;8.40;;;5.70;;
76574;SDS011;65439;50.948;6.988;2023-06-14T01:22:07;7.78;;;6.00;;
76574;SDS011;65439;50.948;6.988;2023-06-14T01:24:33;11.38;;;6.22;;
76574;SDS011;65439;50.948;6.988;2023-06-14T01:26:59;11.80;;;6.28;;
76574;SDS011;65439;50.948;6.988;2023-06-14T01:29:25;8.07;;;6.15;;
76574;SDS011;65439;50.948;6.988;2023-06-14T01:31:53;9.15;;;6.13;;
76574;SDS011;65439;50.948;6.988;2023-06-14T01:34:18;11.07;;;6.60;;
76574;SDS011;65439;50.948;6.988;2023-06-14T01:36:44;7.70;;;6.03;;
76574;SDS011;65439;50.948;6.988;2023-06-14T01:39:11;9.35;;;8.20;;
76574;SDS011;65439;50.948;6.988;2023-06-14T01:41:39;8.73;;;6.32;;
76574;SDS011;65439;50.948;6.988;2023-06-14T01:44:05;9.23;;;7.13;;
76574;SDS011;65439;50.948;6.988;2023-06-14T01:46:31;8.13;;;5.72;;
76574;SDS011;65439;50.948;6.988;2023-06-14T01:48:56;8.00;;;6.75;;
76574;SDS011;65439;50.948;6.988;2023-06-14T01:51:21;7.72;;;6.47;;
76574;SDS011;65439;50.948;6.988;2023-06-14T01:53:47;8.40;;;6.03;;
76574;SDS011;65439;50.948;6.988;2023-06-14T01:56:13;6.25;;;5.43;;
76574;SDS011;65439;50.948;6.988;2023-06-14T01:58:38;7.45;;;6.10;;
76574;SDS011;65439;50.948;6.988;2023-06-14T02:01:04;10.93;;;6.50;;
76574;SDS011;65439;50.948;6.988;2023-06-14T02:03:30;7.70;;;6.57;;
76574;SDS011;65439;50.948;6.988;2023-06-14T02:05:55;6.57;;;5.85;;
76574;SDS011;65439;50.948;6.988;2023-06-14T02:08:21;9.63;;;5.60;;
76574;SDS011;65439;50.948;6.988;2023-06-14T02:10:47;7.68;;;6.00;;
76574;SDS011;65439;50.948;6.988;2023-06-14T02:13:12;7.13;;;5.77;;
76574;SDS011;65439;50.948;6.988;2023-06-14T02:15:37;7.83;;;6.10;;
76574;SDS011;65439;50.948;6.988;2023-06-14T02:18:03;6.70;;;5.77;;
76574;SDS011;65439;50.948;6.988;2023-06-14T02:20:28;7.13;;;5.88;;
76574;SDS011;65439;50.948;6.988;2023-06-14T02:22:54;6.53;;;5.78;;
76574;SDS011;65439;50.948;6.988;2023-06-14T02:25:19;7.97;;;5.85;;
76574;SDS011;65439;50.948;6.988;2023-06-14T02:27:45;8.02;;;5.75;;
76574;SDS011;65439;50.948;6.988;2023-06-14T02:30:10;9.15;;;6.72;;
76574;SDS011;65439;50.948;6.988;2023-06-14T02:32:36;9.05;;;6.50;;
76574;SDS011;65439;50.948;6.988;2023-06-14T02:35:02;9.18;;;6.28;;
76574;SDS011;65439;50.948;6.988;2023-06-14T02:37:27;6.43;;;5.80;;
76574;SDS011;65439;50.948;6.988;2023-06-14T02:39:53;6.65;;;5.93;;
76574;SDS011;65439;50.948;6.988;2023-06-14T02:42:18;9.97;;;6.10;;
76574;SDS011;65439;50.948;6.988;2023-06-14T02:44:44;8.97;;;6.60;;
76574;SDS011;65439;50.948;6.988;2023-06-14T02:47:11;10.48;;;6.35;;
76574;SDS011;65439;50.948;6.988;2023-06-14T02:49:36;8.17;;;5.97;;
76574;SDS011;65439;50.948;6.988;2023-06-14T02:52:02;9.97;;;6.87;;
76574;SDS011;65439;50.948;6.988;2023-06-14T02:54:27;7.75;;;5.75;;
76574;SDS011;65439;50.948;6.988;2023-06-14T02:56:53;9.30;;;6.97;;
76574;SDS011;65439;50.948;6.988;2023-06-14T02:59:18;8.63;;;6.03;;
76574;SDS011;65439;50.948;6.988;2023-06-14T03:01:44;7.47;;;5.95;;
76574;SDS011;65439;50.948;6.988;2023-06-14T03:04:09;8.40;;;6.57;;
76574;SDS011;65439;50.948;6.988;2023-06-14T03:06:35;10.20;;;6.85;;
76574;SDS011;65439;50.948;6.988;2023-06-14T03:09:01;9.63;;;6.22;;
76574;SDS011;65439;50.948;6.988;2023-06-14T03:11:29;8.85;;;6.53;;
76574;SDS011;65439;50.948;6.988;2023-06-14T03:13:54;13.82;;;6.68;;
76574;SDS011;65439;50.948;6.988;2023-06-14T03:16:21;8.32;;;6.38;;
76574;SDS011;65439;50.948;6.988;2023-06-14T03:18:49;8.55;;;6.28;;
76574;SDS011;65439;50.948;6.988;2023-06-14T03:23:41;9.80;;;7.07;;
76574;SDS011;65439;50.948;6.988;2023-06-14T03:26:07;7.47;;;5.85;;
76574;SDS011;65439;50.948;6.988;2023-06-14T03:28:33;9.50;;;6.68;;
76574;SDS011;65439;50.948;6.988;2023-06-14T03:30:58;13.37;;;6.20;;
76574;SDS011;65439;50.948;6.988;2023-06-14T03:33:23;9.23;;;6.60;;
76574;SDS011;65439;50.948;6.988;2023-06-14T03:35:50;8.25;;;6.65;;
76574;SDS011;65439;50.948;6.988;2023-06-14T03:38:15;7.53;;;6.20;;
76574;SDS011;65439;50.948;6.988;2023-06-14T03:40:40;7.80;;;5.27;;
76574;SDS011;65439;50.948;6.988;2023-06-14T03:43:06;9.20;;;6.63;;
76574;SDS011;65439;50.948;6.988;2023-06-14T03:45:31;8.90;;;5.93;;
76574;SDS011;65439;50.948;6.988;2023-06-14T03:47:56;8.07;;;5.63;;
76574;SDS011;65439;50.948;6.988;2023-06-14T03:50:22;8.70;;;5.30;;
76574;SDS011;65439;50.948;6.988;2023-06-14T03:52:48;12.43;;;6.03;;
76574;SDS011;65439;50.948;6.988;2023-06-14T03:55:13;6.65;;;5.38;;
76574;SDS011;65439;50.948;6.988;2023-06-14T03:57:41;7.25;;;5.57;;
76574;SDS011;65439;50.948;6.988;2023-06-14T04:00:07;8.35;;;5.20;;
76574;SDS011;65439;50.948;6.988;2023-06-14T04:02:33;10.20;;;5.25;;
76574;SDS011;65439;50.948;6.988;2023-06-14T04:04:58;6.90;;;5.30;;
76574;SDS011;65439;50.948;6.988;2023-06-14T04:07:24;6.65;;;5.45;;
76574;SDS011;65439;50.948;6.988;2023-06-14T04:09:50;7.40;;;4.93;;
76574;SDS011;65439;50.948;6.988;2023-06-14T04:12:15;7.28;;;5.03;;
76574;SDS011;65439;50.948;6.988;2023-06-14T04:14:40;5.37;;;4.37;;
76574;SDS011;65439;50.948;6.988;2023-06-14T04:17:06;7.05;;;6.40;;
76574;SDS011;65439;50.948;6.988;2023-06-14T04:19:31;7.97;;;5.13;;
76574;SDS011;65439;50.948;6.988;2023-06-14T04:21:57;6.32;;;5.57;;
76574;SDS011;65439;50.948;6.988;2023-06-14T04:24:24;9.32;;;6.03;;
76574;SDS011;65439;50.948;6.988;2023-06-14T04:26:56;6.90;;;4.40;;
76574;SDS011;65439;50.948;6.988;2023-06-14T04:29:23;4.80;;;4.25;;
76574;SDS011;65439;50.948;6.988;2023-06-14T04:31:49;8.00;;;4.78;;
76574;SDS011;65439;50.948;6.988;2023-06-14T04:34:14;6.05;;;4.50;;
76574;SDS011;65439;50.948;6.988;2023-06-14T04:36:43;6.97;;;5.13;;
76574;SDS011;65439;50.948;6.988;2023-06-14T04:39:17;8.35;;;5.50;;
76574;SDS011;65439;50.948;6.988;2023-06-14T04:41:43;6.38;;;5.65;;
76574;SDS011;65439;50.948;6.988;2023-06-14T04:44:08;6.93;;;4.55;;
76574;SDS011;65439;50.948;6.988;2023-06-14T04:46:34;6.97;;;5.32;;
76574;SDS011;65439;50.948;6.988;2023-06-14T04:49:11;8.95;;;5.43;;
76574;SDS011;65439;50.948;6.988;2023-06-14T04:51:40;9.77;;;5.93;;
76574;SDS011;65439;50.948;6.988;2023-06-14T04:54:06;7.72;;;4.97;;
76574;SDS011;65439;50.948;6.988;2023-06-14T04:56:34;9.27;;;4.88;;
76574;SDS011;65439;50.948;6.988;2023-06-14T04:59:00;7.57;;;4.97;;
76574;SDS011;65439;50.948;6.988;2023-06-14T05:01:25;8.03;;;6.40;;
76574;SDS011;65439;50.948;6.988;2023-06-14T05:03:51;6.85;;;5.10;;
76574;SDS011;65439;50.948;6.988;2023-06-14T05:06:17;7.32;;;4.80;;
76574;SDS011;65439;50.948;6.988;2023-06-14T05:08:42;8.23;;;5.60;;
76574;SDS011;65439;50.948;6.988;2023-06-14T05:11:07;7.82;;;5.25;;
76574;SDS011;65439;50.948;6.988;2023-06-14T05:13:33;10.17;;;5.00;;
76574;SDS011;65439;50.948;6.988;2023-06-14T05:15:59;7.07;;;5.35;;
76574;SDS011;65439;50.948;6.988;2023-06-14T05:18:25;8.25;;;5.13;;
76574;SDS011;65439;50.948;6.988;2023-06-14T05:20:50;7.63;;;5.50;;
76574;SDS011;65439;50.948;6.988;2023-06-14T05:23:16;8.02;;;4.80;;
76574;SDS011;65439;50.948;6.988;2023-06-14T05:25:45;6.15;;;4.15;;
76574;SDS011;65439;50.948;6.988;2023-06-14T05:28:10;7.00;;;4.07;;
76574;SDS011;65439;50.948;6.988;2023-06-14T05:30:37;5.93;;;4.80;;
76574;SDS011;65439;50.948;6.988;2023-06-14T05:33:03;7.40;;;4.32;;
76574;SDS011;65439;50.948;6.988;2023-06-14T05:35:29;7.78;;;4.22;;
76574;SDS011;65439;50.948;6.988;2023-06-14T05:37:54;6.80;;;4.53;;
76574;SDS011;65439;50.948;6.988;2023-06-14T05:40:19;5.70;;;4.13;;
76574;SDS011;65439;50.948;6.988;2023-06-14T05:42:45;6.28;;;4.05;;
76574;SDS011;65439;50.948;6.988;2023-06-14T05:45:11;6.60;;;4.80;;
76574;SDS011;65439;50.948;6.988;2023-06-14T05:47:36;5.85;;;4.18;;
76574;SDS011;65439;50.948;6.988;2023-06-14T05:50:01;5.50;;;4.07;;
76574;SDS011;65439;50.948;6.988;2023-06-14T05:52:27;10.32;;;4.22;;
76574;SDS011;65439;50.948;6.988;2023-06-14T05:54:53;4.93;;;4.35;;
76574;SDS011;65439;50.948;6.988;2023-06-14T05:57:18;6.38;;;5.03;;
76574;SDS011;65439;50.948;6.988;2023-06-14T05:59:43;7.77;;;4.47;;
76574;SDS011;65439;50.948;6.988;2023-06-14T06:02:09;11.55;;;4.80;;
76574;SDS011;65439;50.948;6.988;2023-06-14T06:04:34;7.45;;;5.45;;
76574;SDS011;65439;50.948;6.988;2023-06-14T06:06:59;5.40;;;3.80;;
76574;SDS011;65439;50.948;6.988;2023-06-14T06:09:25;6.50;;;4.22;;
76574;SDS011;65439;50.948;6.988;2023-06-14T06:11:51;7.28;;;4.28;;
76574;SDS011;65439;50.948;6.988;2023-06-14T06:14:16;6.32;;;4.57;;
76574;SDS011;65439;50.948;6.988;2023-06-14T06:16:41;6.20;;;3.97;;
76574;SDS011;65439;50.948;6.988;2023-06-14T06:19:07;7.67;;;4.07;;
76574;SDS011;65439;50.948;6.988;2023-06-14T06:21:32;8.67;;;4.97;;
76574;SDS011;65439;50.948;6.988;2023-06-14T06:23:57;6.00;;;4.13;;
76574;SDS011;65439;50.948;6.988;2023-06-14T06:26:22;5.60;;;3.83;;
76574;SDS011;65439;50.948;6.988;2023-06-14T06:28:48;4.60;;;3.60;;
76574;SDS011;65439;50.948;6.988;2023-06-14T06:31:13;5.22;;;3.67;;
76574;SDS011;65439;50.948;6.988;2023-06-14T06:33:39;5.60;;;3.92;;
76574;SDS011;65439;50.948;6.988;2023-06-14T06:36:04;5.95;;;4.13;;
76574;SDS011;65439;50.948;6.988;2023-06-14T06:38:30;8.07;;;3.80;;
76574;SDS011;65439;50.948;6.988;2023-06-14T06:40:55;7.07;;;3.43;;
76574;SDS011;65439;50.948;6.988;2023-06-14T06:43:21;5.90;;;4.00;;
76574;SDS011;65439;50.948;6.988;2023-06-14T06:45:47;7.15;;;3.97;;
76574;SDS011;65439;50.948;6.988;2023-06-14T06:48:12;3.60;;;3.13;;
76574;SDS011;65439;50.948;6.988;2023-06-14T06:50:37;4.18;;;3.40;;
76574;SDS011;65439;50.948;6.988;2023-06-14T06:53:03;4.72;;;3.28;;
76574;SDS011;65439;50.948;6.988;2023-06-14T06:55:28;4.13;;;3.53;;
76574;SDS011;65439;50.948;6.988;2023-06-14T06:57:54;7.00;;;3.92;;
76574;SDS011;65439;50.948;6.988;2023-06-14T07:00:20;4.57;;;3.30;;
76574;SDS011;65439;50.948;6.988;2023-06-14T07:02:46;8.70;;;3.67;;
76574;SDS011;65439;50.948;6.988;2023-06-14T07:05:11;6.75;;;3.15;;
76574;SDS011;65439;50.948;6.988;2023-06-14T07:07:37;4.85;;;3.30;;
76574;SDS011;65439;50.948;6.988;2023-06-14T07:10:03;9.77;;;3.55;;
76574;SDS011;65439;50.948;6.988;2023-06-14T07:12:30;6.57;;;3.80;;
76574;SDS011;65439;50.948;6.988;2023-06-14T07:14:58;6.35;;;3.55;;
76574;SDS011;65439;50.948;6.988;2023-06-14T07:17:23;7.90;;;3.60;;
76574;SDS011;65439;50.948;6.988;2023-06-14T07:19:49;4.60;;;3.70;;
76574;SDS011;65439;50.948;6.988;2023-06-14T07:22:15;5.88;;;3.65;;
76574;SDS011;65439;50.948;6.988;2023-06-14T07:24:41;7.05;;;3.60;;
76574;SDS011;65439;50.948;6.988;2023-06-14T07:27:07;4.38;;;2.97;;
76574;SDS011;65439;50.948;6.988;2023-06-14T07:29:32;3.78;;;2.92;;
76574;SDS011;65439;50.948;6.988;2023-06-14T07:31:58;5.65;;;3.20;;
76574;SDS011;65439;50.948;6.988;2023-06-14T07:34:23;3.83;;;3.20;;
76574;SDS011;65439;50.948;6.988;2023-06-14T07:36:48;5.97;;;3.33;;
76574;SDS011;65439;50.948;6.988;2023-06-14T07:39:14;5.80;;;2.75;;
76574;SDS011;65439;50.948;6.988;2023-06-14T07:41:39;7.57;;;3.70;;
76574;SDS011;65439;50.948;6.988;2023-06-14T07:44:05;4.72;;;2.53;;
76574;SDS011;65439;50.948;6.988;2023-06-14T07:46:30;3.60;;;2.53;;
76574;SDS011;65439;50.948;6.988;2023-06-14T07:48:55;4.28;;;2.90;;
76574;SDS011;65439;50.948;6.988;2023-06-14T07:51:21;3.90;;;3.13;;
76574;SDS011;65439;50.948;6.988;2023-06-14T07:53:47;4.97;;;3.10;;
76574;SDS011;65439;50.948;6.988;2023-06-14T07:56:13;5.50;;;2.67;;
76574;SDS011;65439;50.948;6.988;2023-06-14T07:58:38;4.93;;;2.40;;
76574;SDS011;65439;50.948;6.988;2023-06-14T08:01:04;3.17;;;2.40;;
76574;SDS011;65439;50.948;6.988;2023-06-14T08:03:31;4.18;;;2.05;;
76574;SDS011;65439;50.948;6.988;2023-06-14T08:05:57;3.95;;;2.33;;
76574;SDS011;65439;50.948;6.988;2023-06-14T08:08:22;4.23;;;1.90;;
76574;SDS011;65439;50.948;6.988;2023-06-14T08:10:47;5.70;;;2.10;;
76574;SDS011;65439;50.948;6.988;2023-06-14T08:13:13;4.80;;;2.10;;
76574;SDS011;65439;50.948;6.988;2023-06-14T08:15:38;2.75;;;1.90;;
76574;SDS011;65439;50.948;6.988;2023-06-14T08:18:03;2.83;;;2.00;;
76574;SDS011;65439;50.948;6.988;2023-06-14T08:20:29;5.13;;;2.57;;
76574;SDS011;65439;50.948;6.988;2023-06-14T08:22:56;2.63;;;1.83;;
76574;SDS011;65439;50.948;6.988;2023-06-14T08:25:22;2.55;;;1.75;;
76574;SDS011;65439;50.948;6.988;2023-06-14T08:27:47;3.28;;;2.10;;
76574;SDS011;65439;50.948;6.988;2023-06-14T08:30:13;3.25;;;2.17;;
76574;SDS011;65439;50.948;6.988;2023-06-14T08:32:38;2.55;;;1.88;;
76574;SDS011;65439;50.948;6.988;2023-06-14T08:35:04;3.70;;;2.20;;
76574;SDS011;65439;50.948;6.988;2023-06-14T08:37:30;3.70;;;2.13;;
76574;SDS011;65439;50.948;6.988;2023-06-14T08:39:55;2.73;;;2.00;;
76574;SDS011;65439;50.948;6.988;2023-06-14T08:42:21;3.83;;;1.98;;
76574;SDS011;65439;50.948;6.988;2023-06-14T08:44:47;3.72;;;2.50;;
76574;SDS011;65439;50.948;6.988;2023-06-14T08:47:12;6.63;;;2.10;;
76574;SDS011;65439;50.948;6.988;2023-06-14T08:49:38;3.13;;;2.15;;
76574;SDS011;65439;50.948;6.988;2023-06-14T08:52:05;3.88;;;2.15;;
76574;SDS011;65439;50.948;6.988;2023-06-14T08:54:33;5.07;;;2.20;;
76574;SDS011;65439;50.948;6.988;2023-06-14T08:57:00;3.15;;;2.13;;
76574;SDS011;65439;50.948;6.988;2023-06-14T08:59:26;2.78;;;2.10;;
76574;SDS011;65439;50.948;6.988;2023-06-14T09:01:52;4.45;;;1.92;;
76574;SDS011;65439;50.948;6.988;2023-06-14T09:04:19;3.50;;;2.65;;
76574;SDS011;65439;50.948;6.988;2023-06-14T09:06:46;3.25;;;2.15;;
76574;SDS011;65439;50.948;6.988;2023-06-14T09:09:11;3.37;;;2.47;;
76574;SDS011;65439;50.948;6.988;2023-06-14T09:11:37;4.20;;;2.28;;
76574;SDS011;65439;50.948;6.988;2023-06-14T09:14:02;3.72;;;2.38;;
76574;SDS011;65439;50.948;6.988;2023-06-14T09:16:28;5.63;;;2.40;;
76574;SDS011;65439;50.948;6.988;2023-06-14T09:18:53;2.40;;;1.93;;
76574;SDS011;65439;50.948;6.988;2023-06-14T09:21:19;3.65;;;2.25;;
76574;SDS011;65439;50.948;6.988;2023-06-14T09:23:46;2.90;;;2.08;;
76574;SDS011;65439;50.948;6.988;2023-06-14T09:26:16;3.75;;;2.10;;
76574;SDS011;65439;50.948;6.988;2023-06-14T09:28:44;2.92;;;2.13;;
76574;SDS011;65439;50.948;6.988;2023-06-14T09:31:14;6.75;;;2.47;;
76574;SDS011;65439;50.948;6.988;2023-06-14T09:33:44;2.65;;;2.10;;
76574;SDS011;65439;50.948;6.988;2023-06-14T09:36:13;3.20;;;2.22;;
76574;SDS011;65439;50.948;6.988;2023-06-14T09:38:41;6.63;;;2.50;;
76574;SDS011;65439;50.948;6.988;2023-06-14T09:41:06;3.00;;;2.22;;
76574;SDS011;65439;50.948;6.988;2023-06-14T09:43:32;3.07;;;2.20;;
76574;SDS011;65439;50.948;6.988;2023-06-14T09:45:58;3.30;;;2.25;;
76574;SDS011;65439;50.948;6.988;2023-06-14T09:48:25;4.45;;;2.70;;
76574;SDS011;65439;50.948;6.988;2023-06-14T09:50:50;3.00;;;1.93;;
76574;SDS011;65439;50.948;6.988;2023-06-14T09:53:16;4.50;;;2.95;;
76574;SDS011;65439;50.948;6.988;2023-06-14T09:55:44;4.97;;;2.33;;
76574;SDS011;65439;50.948;6.988;2023-06-14T09:58:10;4.47;;;2.45;;
76574;SDS011;65439;50.948;6.988;2023-06-14T10:00:37;5.03;;;2.25;;
76574;SDS011;65439;50.948;6.988;2023-06-14T10:05:39;3.55;;;2.17;;
76574;SDS011;65439;50.948;6.988;2023-06-14T10:08:08;3.50;;;2.30;;
76574;SDS011;65439;50.948;6.988;2023-06-14T10:10:34;4.57;;;2.92;;
76574;SDS011;65439;50.948;6.988;2023-06-14T10:12:59;3.20;;;2.20;;
76574;SDS011;65439;50.948;6.988;2023-06-14T10:23:13;3.60;;;2.08;;
76574;SDS011;65439;50.948;6.988;2023-06-14T10:25:41;4.47;;;2.55;;
76574;SDS011;65439;50.948;6.988;2023-06-14T10:31:06;3.03;;;2.10;;
76574;SDS011;65439;50.948;6.988;2023-06-14T10:33:33;2.85;;;2.08;;
76574;SDS011;65439;50.948;6.988;2023-06-14T10:38:34;3.67;;;2.38;;
76574;SDS011;65439;50.948;6.988;2023-06-14T10:41:02;3.40;;;1.80;;
76574;SDS011;65439;50.948;6.988;2023-06-14T10:43:28;6.50;;;2.28;;
76574;SDS011;65439;50.948;6.988;2023-06-14T10:48:41;4.40;;;2.20;;
76574;SDS011;65439;50.948;6.988;2023-06-14T10:51:15;4.82;;;2.20;;
76574;SDS011;65439;50.948;6.988;2023-06-14T10:53:49;4.32;;;2.28;;
76574;SDS011;65439;50.948;6.988;2023-06-14T10:56:27;3.17;;;2.10;;
76574;SDS011;65439;50.948;6.988;2023-06-14T10:58:54;3.83;;;2.28;;
76574;SDS011;65439;50.948;6.988;2023-06-14T11:01:23;2.95;;;2.38;;
76574;SDS011;65439;50.948;6.988;2023-06-14T11:03:54;3.97;;;2.40;;
76574;SDS011;65439;50.948;6.988;2023-06-14T11:11:45;5.75;;;2.70;;
76574;SDS011;65439;50.948;6.988;2023-06-14T11:14:11;4.70;;;2.33;;
76574;SDS011;65439;50.948;6.988;2023-06-14T11:16:36;3.13;;;2.20;;
76574;SDS011;65439;50.948;6.988;2023-06-14T11:19:02;2.90;;;2.22;;
76574;SDS011;65439;50.948;6.988;2023-06-14T11:21:31;6.18;;;2.38;;
76574;SDS011;65439;50.948;6.988;2023-06-14T11:23:58;5.65;;;2.35;;
76574;SDS011;65439;50.948;6.988;2023-06-14T11:26:24;4.15;;;2.47;;
76574;SDS011;65439;50.948;6.988;2023-06-14T11:28:56;3.67;;;2.60;;
76574;SDS011;65439;50.948;6.988;2023-06-14T11:31:23;2.83;;;2.25;;
76574;SDS011;65439;50.948;6.988;2023-06-14T11:33:53;4.70;;;2.90;;
76574;SDS011;65439;50.948;6.988;2023-06-14T11:36:20;3.85;;;2.80;;
76574;SDS011;65439;50.948;6.988;2023-06-14T11:38:45;2.67;;;2.03;;
76574;SDS011;65439;50.948;6.988;2023-06-14T11:41:10;3.25;;;2.38;;
76574;SDS011;65439;50.948;6.988;2023-06-14T11:46:02;4.53;;;2.63;;
76574;SDS011;65439;50.948;6.988;2023-06-14T11:48:40;3.38;;;2.55;;
76574;SDS011;65439;50.948;6.988;2023-06-14T11:51:06;4.25;;;2.35;;
76574;SDS011;65439;50.948;6.988;2023-06-14T11:53:32;3.60;;;2.85;;
76574;SDS011;65439;50.948;6.988;2023-06-14T11:58:23;6.90;;;3.30;;
76574;SDS011;65439;50.948;6.988;2023-06-14T12:03:14;5.38;;;2.05;;
76574;SDS011;65439;50.948;6.988;2023-06-14T12:08:05;4.00;;;2.20;;
76574;SDS011;65439;50.948;6.988;2023-06-14T12:10:39;3.67;;;1.85;;
76574;SDS011;65439;50.948;6.988;2023-06-14T12:13:06;3.17;;;2.10;;
76574;SDS011;65439;50.948;6.988;2023-06-14T12:15:31;4.80;;;2.50;;
76574;SDS011;65439;50.948;6.988;2023-06-14T12:17:57;4.87;;;2.20;;
76574;SDS011;65439;50.948;6.988;2023-06-14T12:20:23;2.80;;;1.98;;
76574;SDS011;65439;50.948;6.988;2023-06-14T12:22:55;2.95;;;1.83;;
76574;SDS011;65439;50.948;6.988;2023-06-14T12:25:27;2.72;;;2.00;;
76574;SDS011;65439;50.948;6.988;2023-06-14T12:27:56;4.20;;;2.13;;
76574;SDS011;65439;50.948;6.988;2023-06-14T12:30:22;3.92;;;2.08;;
76574;SDS011;65439;50.948;6.988;2023-06-14T12:32:47;4.13;;;2.23;;
76574;SDS011;65439;50.948;6.988;2023-06-14T12:35:13;2.75;;;2.15;;
76574;SDS011;65439;50.948;6.988;2023-06-14T12:37:38;5.20;;;2.70;;
76574;SDS011;65439;50.948;6.988;2023-06-14T12:42:30;4.13;;;2.08;;
76574;SDS011;65439;50.948;6.988;2023-06-14T12:44:56;2.83;;;1.98;;
76574;SDS011;65439;50.948;6.988;2023-06-14T12:49:46;3.67;;;1.90;;
76574;SDS011;65439;50.948;6.988;2023-06-14T12:52:12;4.83;;;2.10;;
76574;SDS011;65439;50.948;6.988;2023-06-14T12:54:37;4.27;;;2.17;;
76574;SDS011;65439;50.948;6.988;2023-06-14T12:57:04;4.82;;;2.15;;
76574;SDS011;65439;50.948;6.988;2023-06-14T12:59:29;5.68;;;2.90;;
76574;SDS011;65439;50.948;6.988;2023-06-14T13:01:58;3.15;;;2.55;;
76574;SDS011;65439;50.948;6.988;2023-06-14T13:06:49;5.17;;;2.40;;
76574;SDS011;65439;50.948;6.988;2023-06-14T13:11:40;3.25;;;2.50;;
76574;SDS011;65439;50.948;6.988;2023-06-14T13:16:30;2.43;;;1.97;;
76574;SDS011;65439;50.948;6.988;2023-06-14T13:18:56;2.40;;;1.97;;
76574;SDS011;65439;50.948;6.988;2023-06-14T13:21:21;4.60;;;2.20;;
76574;SDS011;65439;50.948;6.988;2023-06-14T13:26:12;4.37;;;2.07;;
76574;SDS011;65439;50.948;6.988;2023-06-14T13:28:37;2.60;;;2.13;;
76574;SDS011;65439;50.948;6.988;2023-06-14T13:31:02;4.87;;;2.70;;
76574;SDS011;65439;50.948;6.988;2023-06-14T13:33:28;3.90;;;2.23;;
76574;SDS011;65439;50.948;6.988;2023-06-14T13:35:53;3.90;;;2.53;;
76574;SDS011;65439;50.948;6.988;2023-06-14T13:38:18;3.53;;;2.30;;
76574;SDS011;65439;50.948;6.988;2023-06-14T13:40:44;2.88;;;2.00;;
76574;SDS011;65439;50.948;6.988;2023-06-14T13:43:09;3.78;;;2.70;;
76574;SDS011;65439;50.948;6.988;2023-06-14T13:45:35;3.13;;;2.45;;
76574;SDS011;65439;50.948;6.988;2023-06-14T13:48:00;3.93;;;2.53;;
76574;SDS011;65439;50.948;6.988;2023-06-14T13:50:25;4.05;;;2.47;;
76574;SDS011;65439;50.948;6.988;2023-06-14T13:52:51;3.10;;;2.50;;
76574;SDS011;65439;50.948;6.988;2023-06-14T13:55:16;7.43;;;2.63;;
76574;SDS011;65439;50.948;6.988;2023-06-14T13:57:41;4.40;;;2.78;;
76574;SDS011;65439;50.948;6.988;2023-06-14T14:00:07;3.50;;;2.50;;
76574;SDS011;65439;50.948;6.988;2023-06-14T14:02:33;4.22;;;2.60;;
76574;SDS011;65439;50.948;6.988;2023-06-14T14:04:58;7.20;;;2.93;;
76574;SDS011;65439;50.948;6.988;2023-06-14T14:07:24;4.30;;;2.20;;
76574;SDS011;65439;50.948;6.988;2023-06-14T14:09:49;7.50;;;2.33;;
76574;SDS011;65439;50.948;6.988;2023-06-14T14:12:14;3.63;;;2.47;;
76574;SDS011;65439;50.948;6.988;2023-06-14T14:14:40;5.32;;;2.65;;
76574;SDS011;65439;50.948;6.988;2023-06-14T14:17:05;5.78;;;2.45;;
76574;SDS011;65439;50.948;6.988;2023-06-14T14:19:31;3.45;;;2.45;;
76574;SDS011;65439;50.948;6.988;2023-06-14T14:21:57;3.88;;;2.60;;
76574;SDS011;65439;50.948;6.988;2023-06-14T14:24:22;6.30;;;2.23;;
76574;SDS011;65439;50.948;6.988;2023-06-14T14:26:47;2.97;;;2.47;;
76574;SDS011;65439;50.948;6.988;2023-06-14T14:29:14;3.00;;;2.50;;
76574;SDS011;65439;50.948;6.988;2023-06-14T14:31:40;2.88;;;2.55;;
76574;SDS011;65439;50.948;6.988;2023-06-14T14:34:05;4.00;;;2.53;;
76574;SDS011;65439;50.948;6.988;2023-06-14T14:36:30;4.87;;;2.40;;
76574;SDS011;65439;50.948;6.988;2023-06-14T14:38:56;5.05;;;2.45;;
76574;SDS011;65439;50.948;6.988;2023-06-14T14:43:46;6.03;;;3.13;;
76574;SDS011;65439;50.948;6.988;2023-06-14T14:48:37;4.43;;;2.80;;
76574;SDS011;65439;50.948;6.988;2023-06-14T14:53:28;4.07;;;2.30;;
76574;SDS011;65439;50.948;6.988;2023-06-14T14:58:19;3.57;;;2.33;;
76574;SDS011;65439;50.948;6.988;2023-06-14T15:00:45;4.82;;;2.88;;
76574;SDS011;65439;50.948;6.988;2023-06-14T15:03:11;3.20;;;2.38;;
76574;SDS011;65439;50.948;6.988;2023-06-14T15:05:36;4.43;;;2.92;;
76574;SDS011;65439;50.948;6.988;2023-06-14T15:10:27;2.42;;;2.10;;
76574;SDS011;65439;50.948;6.988;2023-06-14T15:15:18;6.13;;;2.63;;
76574;SDS011;65439;50.948;6.988;2023-06-14T15:20:08;3.40;;;2.60;;
76574;SDS011;65439;50.948;6.988;2023-06-14T15:22:34;4.25;;;3.83;;
76574;SDS011;65439;50.948;6.988;2023-06-14T15:24:59;5.37;;;2.57;;
76574;SDS011;65439;50.948;6.988;2023-06-14T15:29:50;3.70;;;2.95;;
76574;SDS011;65439;50.948;6.988;2023-06-14T15:32:16;2.88;;;2.28;;
76574;SDS011;65439;50.948;6.988;2023-06-14T15:34:41;3.95;;;2.70;;
76574;SDS011;65439;50.948;6.988;2023-06-14T15:37:07;4.90;;;3.38;;
76574;SDS011;65439;50.948;6.988;2023-06-14T15:39:32;5.35;;;2.63;;
76574;SDS011;65439;50.948;6.988;2023-06-14T15:41:58;2.87;;;2.40;;
76574;SDS011;65439;50.948;6.988;2023-06-14T15:44:23;3.13;;;2.50;;
76574;SDS011;65439;50.948;6.988;2023-06-14T15:46:50;3.78;;;2.72;;
76574;SDS011;65439;50.948;6.988;2023-06-14T15:51:41;3.00;;;2.70;;
76574;SDS011;65439;50.948;6.988;2023-06-14T15:54:06;3.20;;;2.53;;
76574;SDS011;65439;50.948;6.988;2023-06-14T15:56:32;4.03;;;3.20;;
76574;SDS011;65439;50.948;6.988;2023-06-14T16:01:22;5.40;;;2.63;;
76574;SDS011;65439;50.948;6.988;2023-06-14T16:03:49;4.20;;;3.03;;